Time;durP1;ratioP1;P1;durP2;ratioP2;P2;SDS_P1;SDS_P2;PMS_P1;PMS_P2;Temp;Humidity;BMP_temperature;BMP_pressure;BME280_temperature;BME280_humidity;BME280_pressure;Samples;Min_cycle;Max_cycle;Signal;HPM_P1;HPM_P2
2023/05/03 00:03:03;;;;;;;5.03;3.57;;;;;;;3.72;56.41;101756.03;21032020;28;20203;-80
2023/05/03 00:13:05;;;;;;;8.40;3.93;;;;;;;4.04;55.47;101739.34;21012209;28;20652;-80
2023/05/03 00:23:07;;;;;;;4.67;3.13;;;;;;;3.66;55.75;101747.88;21015209;28;20200;-79
2023/05/03 00:33:09;;;;;;;5.37;3.20;;;;;;;3.41;57.37;101742.81;21033890;28;20292;-79
2023/05/03 00:43:12;;;;;;;6.40;3.33;;;;;;;3.22;57.23;101738.66;21013230;28;20196;-79
2023/05/03 00:53:15;;;;;;;5.83;3.40;;;;;;;3.50;56.31;101756.06;21010247;28;20204;-79
2023/05/03 01:03:17;;;;;;;5.43;4.43;;;;;;;3.53;56.04;101765.88;21013623;28;20211;-79
2023/05/03 01:13:43;;;;;;;8.37;3.93;;;;;;;3.41;56.29;101765.16;20974879;28;20284;-78
2023/05/03 01:23:59;;;;;;;5.77;4.23;;;;;;;3.20;56.56;101768.78;20995980;28;20191;-79
2023/05/03 01:34:23;;;;;;;8.27;4.23;;;;;;;2.89;58.07;101771.13;21045011;28;20618;-80
2023/05/03 01:44:25;;;;;;;7.43;4.30;;;;;;;3.10;57.00;101772.25;20986708;28;20191;-79
2023/05/03 01:54:27;;;;;;;4.83;3.60;;;;;;;2.97;57.03;101776.25;20988082;28;20281;-79
2023/05/03 02:04:30;;;;;;;8.17;4.57;;;;;;;3.15;57.43;101786.28;21003602;28;20207;-79
2023/05/03 02:14:32;;;;;;;6.07;3.90;;;;;;;2.73;58.06;101788.69;20958028;28;20228;-80
2023/05/03 02:24:35;;;;;;;6.00;3.70;;;;;;;2.60;58.34;101795.44;20955376;28;20187;-78
2023/05/03 02:34:37;;;;;;;5.33;3.57;;;;;;;2.42;58.78;101810.44;20976411;28;20281;-78
2023/05/03 02:44:42;;;;;;;5.07;3.30;;;;;;;2.67;57.73;101821.22;20935964;28;20674;-79
2023/05/03 02:54:46;;;;;;;4.87;3.17;;;;;;;2.68;57.11;101814.56;20962677;28;20692;-78
2023/05/03 03:04:48;;;;;;;6.80;4.00;;;;;;;2.52;57.81;101808.97;20966286;28;20493;-78
2023/05/03 03:14:50;;;;;;;5.70;3.00;;;;;;;2.35;58.33;101797.78;20931277;28;20226;-78
2023/05/03 03:24:52;;;;;;;3.80;3.40;;;;;;;2.13;58.39;101799.63;20931263;28;20203;-79
2023/05/03 03:34:55;;;;;;;3.73;3.43;;;;;;;1.80;58.80;101789.22;20939722;28;20218;-78
2023/05/03 03:44:58;;;;;;;6.80;3.87;;;;;;;2.24;58.11;101779.19;20956604;28;20196;-78
2023/05/03 03:55:00;;;;;;;8.50;3.77;;;;;;;1.96;58.51;101775.34;20925583;28;20235;-78
2023/05/03 04:05:03;;;;;;;6.17;3.73;;;;;;;2.12;57.97;101776.47;20917145;28;20580;-78
2023/05/03 04:15:07;;;;;;;6.33;4.03;;;;;;;2.08;57.78;101775.28;20922496;28;20220;-77
2023/05/03 04:25:15;;;;;;;6.40;3.70;;;;;;;1.89;58.38;101762.69;20919313;28;20191;-77
2023/05/03 04:35:22;;;;;;;6.30;4.17;;;;;;;2.27;57.87;101756.41;20925945;28;20281;-78
2023/05/03 04:45:26;;;;;;;7.47;4.90;;;;;;;2.53;57.04;101760.47;20897723;28;20195;-78
2023/05/03 04:55:29;;;;;;;8.47;5.17;;;;;;;2.47;57.17;101762.31;20911953;28;20689;-78
2023/05/03 05:05:33;;;;;;;11.27;5.17;;;;;;;2.42;57.46;101788.16;20908068;28;20208;-78
2023/05/03 05:15:35;;;;;;;7.77;5.00;;;;;;;2.30;58.53;101795.75;20894877;28;20223;-78
2023/05/03 05:25:37;;;;;;;8.67;5.60;;;;;;;2.86;57.24;101801.47;20951029;28;20196;-77
2023/05/03 05:35:40;;;;;;;8.47;5.83;;;;;;;3.31;56.18;101804.09;20866821;28;20274;-80
2023/05/03 05:45:43;;;;;;;7.87;5.37;;;;;;;3.34;57.23;101823.09;20888820;28;20200;-79
2023/05/03 05:55:45;;;;;;;8.07;5.67;;;;;;;3.81;53.49;101834.63;20884507;28;20220;-79
2023/05/03 06:05:48;;;;;;;11.00;5.70;;;;;;;3.21;54.23;101841.06;20895670;28;20212;-79
2023/05/03 06:15:50;;;;;;;7.33;4.93;;;;;;;3.78;53.23;101844.38;20934386;28;20351;-79
2023/05/03 06:25:52;;;;;;;9.03;4.90;;;;;;;4.05;51.21;101857.56;20968534;28;20579;-79
2023/05/03 06:35:57;;;;;;;11.30;5.47;;;;;;;3.80;51.79;101861.72;20951819;28;20211;-79
2023/05/03 06:46:00;;;;;;;5.27;4.73;;;;;;;4.41;52.71;101854.06;21004649;28;20183;-78
2023/05/03 06:56:02;;;;;;;6.43;4.33;;;;;;;4.78;49.98;101839.31;20974963;28;20600;-79
2023/05/03 07:06:05;;;;;;;6.50;4.13;;;;;;;5.10;48.95;101842.94;20985869;28;20281;-79
2023/05/03 07:16:07;;;;;;;7.80;4.20;;;;;;;4.89;48.83;101843.91;21001873;28;20223;-79
2023/05/03 07:26:09;;;;;;;7.03;4.07;;;;;;;5.53;48.19;101838.22;21066059;28;20191;-79
2023/05/03 07:36:11;;;;;;;9.40;4.00;;;;;;;5.95;46.88;101829.69;20989140;28;20223;-80
2023/05/03 07:46:13;;;;;;;5.40;3.40;;;;;;;6.06;45.91;101810.97;20964951;28;20269;-79
2023/05/03 07:56:15;;;;;;;11.50;3.90;;;;;;;5.81;47.13;101809.75;21010216;28;20218;-79
2023/05/03 08:06:17;;;;;;;6.03;3.80;;;;;;;6.49;44.73;101804.88;21015908;28;20264;-79
2023/05/03 08:16:20;;;;;;;8.90;2.97;;;;;;;6.89;43.33;101809.69;20983570;28;20231;-79
2023/05/03 08:26:23;;;;;;;6.22;3.05;;;;;;;6.46;43.92;101788.59;20996004;28;20195;-80
2023/05/03 08:36:25;;;;;;;4.80;2.60;;;;;;;7.25;42.57;101785.19;20997388;28;20252;-80
2023/05/03 08:46:27;;;;;;;4.70;2.20;;;;;;;7.37;40.03;101791.34;20991403;28;20538;-79
2023/05/03 08:56:39;;;;;;;2.10;1.30;;;;;;;7.93;38.64;101790.31;20990537;28;20624;-80
2023/05/03 09:06:41;;;;;;;4.93;1.83;;;;;;;7.35;40.92;101799.25;21010442;28;20223;-80
2023/05/03 09:16:45;;;;;;;3.97;1.60;;;;;;;7.77;39.43;101772.66;21007264;28;20227;-81
2023/05/03 09:26:49;;;;;;;5.27;1.70;;;;;;;8.19;38.04;101771.31;21009903;28;20743;-79
2023/05/03 09:36:51;;;;;;;3.20;1.87;;;;;;;8.86;38.45;101764.91;21071204;28;20267;-78
2023/05/03 09:47:06;;;;;;;3.73;1.93;;;;;;;8.04;39.09;101759.03;21050271;28;20537;-79
2023/05/03 09:57:08;;;;;;;3.58;1.77;;;;;;;8.08;38.77;101748.03;20989536;28;20310;-79
2023/05/03 10:07:12;;;;;;;2.33;1.57;;;;;;;7.87;37.25;101752.97;21005545;28;20628;-79
2023/05/03 10:17:25;;;;;;;2.20;1.50;;;;;;;8.48;39.13;101746.91;20964268;28;20223;-79
2023/05/03 10:27:47;;;;;;;1.88;1.58;;;;;;;9.61;37.38;101722.09;20989256;28;20221;-78
2023/05/03 10:37:50;;;;;;;3.00;1.70;;;;;;;9.04;36.13;101709.81;21013687;28;20550;-78
2023/05/03 10:48:11;;;;;;;2.93;1.90;;;;;;;9.27;36.50;101700.50;21013951;28;20194;-79
2023/05/03 10:58:15;;;;;;;3.83;1.73;;;;;;;9.16;34.03;101696.13;20983509;28;20223;-78
2023/05/03 11:08:24;;;;;;;3.95;1.83;;;;;;;9.48;34.80;101686.97;21006082;28;20219;-79
2023/05/03 11:18:26;;;;;;;3.35;2.03;;;;;;;10.28;34.95;101679.31;20980849;28;20281;-79
2023/05/03 11:28:28;;;;;;;4.03;2.10;;;;;;;10.19;35.41;101667.06;20970299;28;20195;-78
2023/05/03 11:38:32;;;;;;;5.90;1.70;;;;;;;9.85;36.01;101669.28;20995468;28;20508;-78
2023/05/03 11:48:34;;;;;;;2.20;1.40;;;;;;;10.93;33.66;101651.03;20999744;28;20199;-78
2023/05/03 11:58:48;;;;;;;3.58;2.53;;;;;;;10.62;32.04;101656.44;21037387;28;20269;-78
2023/05/03 12:08:50;;;;;;;3.20;1.48;;;;;;;11.42;30.34;101657.97;21013422;28;20492;-78
2023/05/03 12:18:57;;;;;;;3.67;2.08;;;;;;;12.47;31.21;101649.22;20995356;28;20254;-78
2023/05/03 12:29:02;;;;;;;3.40;2.63;;;;;;;10.95;32.17;101637.44;20998079;28;20221;-78
2023/05/03 12:39:09;;;;;;;3.22;1.90;;;;;;;11.89;30.85;101619.81;20974933;28;20211;-78
2023/05/03 12:49:11;;;;;;;3.55;1.73;;;;;;;12.06;28.64;101616.28;20997539;28;20187;-79
2023/05/03 12:59:16;;;;;;;4.55;2.65;;;;;;;10.92;31.45;101614.63;21018639;28;20279;-79
2023/05/03 13:09:39;;;;;;;3.22;2.50;;;;;;;11.71;29.71;101589.69;20993122;28;20211;-79
2023/05/03 13:20:02;;;;;;;4.25;1.80;;;;;;;12.64;29.35;101567.19;20929288;28;20235;-78
2023/05/03 13:30:04;;;;;;;3.80;2.60;;;;;;;12.49;28.21;101542.13;20918804;28;20241;-79
2023/05/03 13:40:08;;;;;;;3.42;2.25;;;;;;;12.62;28.58;101527.00;20904656;28;20277;-79
2023/05/03 13:50:11;;;;;;;8.00;2.95;;;;;;;12.56;28.26;101519.81;20941643;28;20265;-80
2023/05/03 14:00:13;;;;;;;5.95;2.40;;;;;;;13.60;26.93;101484.81;20933255;28;20269;-79
2023/05/03 14:10:15;;;;;;;5.13;2.67;;;;;;;13.06;29.00;101472.16;20919769;28;20187;-79
2023/05/03 14:20:18;;;;;;;5.38;2.63;;;;;;;13.59;28.57;101466.13;20901271;28;20285;-79
2023/05/03 14:30:20;;;;;;;4.72;2.88;;;;;;;13.65;27.99;101453.44;20900368;28;20196;-79
2023/05/03 14:40:23;;;;;;;5.72;3.08;;;;;;;13.22;29.64;101444.94;20917713;28;20513;-80
2023/05/03 14:50:25;;;;;;;3.65;2.50;;;;;;;13.46;29.02;101433.09;20917642;28;20200;-80
2023/05/03 15:00:28;;;;;;;3.10;2.38;;;;;;;12.86;30.33;101425.41;20911466;28;20216;-86
2023/05/03 15:10:30;;;;;;;2.58;2.30;;;;;;;12.71;30.19;101432.38;20894460;28;20593;-78
2023/05/03 15:20:32;;;;;;;4.85;2.92;;;;;;;12.51;30.97;101418.00;20919066;28;20300;-78
2023/05/03 15:30:35;;;;;;;3.88;2.45;;;;;;;13.21;30.51;101402.75;20921336;28;20199;-79
2023/05/03 15:40:37;;;;;;;3.20;2.88;;;;;;;12.34;30.83;101402.63;20856827;28;20282;-79
2023/05/03 15:50:39;;;;;;;5.28;3.40;;;;;;;12.33;30.80;101400.13;20880600;28;20192;-79
2023/05/03 16:00:41;;;;;;;4.95;3.17;;;;;;;12.82;30.62;101395.22;20864420;28;20672;-79
2023/05/03 16:10:45;;;;;;;4.38;2.60;;;;;;;12.53;32.01;101401.53;20867151;28;20939;-79
2023/05/03 16:20:48;;;;;;;2.90;2.33;;;;;;;12.85;30.58;101384.06;20903779;28;20628;-79
2023/05/03 16:30:50;;;;;;;4.80;2.58;;;;;;;12.54;31.04;101386.19;20894973;28;20192;-80
2023/05/03 16:40:52;;;;;;;5.75;3.03;;;;;;;12.55;30.59;101379.38;20886513;28;20223;-79
2023/05/03 16:50:55;;;;;;;6.13;3.20;;;;;;;12.80;30.23;101367.22;20868545;28;20269;-79
2023/05/03 17:00:57;;;;;;;3.83;2.70;;;;;;;12.22;31.16;101364.78;20862085;28;20220;-78
2023/05/03 17:11:07;;;;;;;4.47;2.78;;;;;;;12.26;31.16;101354.47;20899259;28;20210;-78
2023/05/03 17:21:10;;;;;;;3.63;2.30;;;;;;;11.94;30.48;101347.19;20966956;28;20227;-78
2023/05/03 17:31:12;;;;;;;3.22;1.88;;;;;;;12.20;30.66;101344.47;20971034;28;20244;-78
2023/05/03 17:41:14;;;;;;;4.97;2.63;;;;;;;11.85;33.25;101354.81;20975222;28;20244;-78
2023/05/03 17:51:16;;;;;;;6.50;2.55;;;;;;;12.01;31.34;101341.91;20980876;28;20199;-78
2023/05/03 18:01:18;;;;;;;6.25;2.50;;;;;;;11.63;31.97;101350.06;20965868;28;20222;-78
2023/05/03 18:11:21;;;;;;;3.85;1.80;;;;;;;11.17;33.01;101344.75;20972973;28;20199;-79
2023/05/03 18:21:23;;;;;;;3.75;2.13;;;;;;;11.03;34.61;101349.63;20944888;28;20695;-78
2023/05/03 18:31:26;;;;;;;4.82;2.70;;;;;;;11.19;34.12;101348.94;20988003;28;20194;-78
2023/05/03 18:41:28;;;;;;;4.97;2.45;;;;;;;10.41;34.81;101355.03;20955835;28;20223;-78
2023/05/03 18:51:31;;;;;;;4.95;2.30;;;;;;;10.33;34.82;101345.34;20958043;28;20203;-79
2023/05/03 19:01:33;;;;;;;4.05;2.30;;;;;;;10.67;34.40;101339.22;20967377;28;20646;-78
2023/05/03 19:11:35;;;;;;;6.93;2.90;;;;;;;10.67;34.04;101335.53;20953011;28;20241;-79
2023/05/03 19:21:40;;;;;;;6.30;2.58;;;;;;;10.54;34.52;101342.91;20983955;28;20255;-78
2023/05/03 19:31:43;;;;;;;4.90;2.53;;;;;;;9.91;37.39;101353.00;20978267;28;20195;-79
2023/05/03 19:41:46;;;;;;;7.55;3.47;;;;;;;9.98;37.82;101352.56;21000437;28;20268;-79
2023/05/03 19:51:50;;;;;;;4.38;3.88;;;;;;;10.14;38.51;101353.09;20960766;28;20218;-78
2023/05/03 20:01:52;;;;;;;6.17;3.90;;;;;;;9.56;39.08;101360.13;20997622;28;20246;-77
2023/05/03 20:11:58;;;;;;;8.05;4.55;;;;;;;9.77;38.68;101351.31;20994747;28;20249;-77
2023/05/03 20:22:01;;;;;;;8.23;4.18;;;;;;;9.48;40.08;101352.38;21012933;28;20226;-78
2023/05/03 20:32:03;;;;;;;6.93;4.40;;;;;;;8.81;41.69;101351.84;20989212;28;20245;-78
2023/05/03 20:42:05;;;;;;;7.43;4.25;;;;;;;8.80;41.42;101347.38;21021999;28;20696;-78
2023/05/03 20:52:07;;;;;;;8.88;4.82;;;;;;;8.75;42.52;101347.47;21042704;28;20195;-78
2023/05/03 21:02:09;;;;;;;7.37;4.57;;;;;;;8.70;42.86;101341.06;20997600;28;20223;-79
2023/05/03 21:12:11;;;;;;;9.43;5.17;;;;;;;8.42;42.78;101337.22;20976964;28;20191;-78
2023/05/03 21:22:13;;;;;;;6.97;4.80;;;;;;;8.30;43.07;101345.28;20955134;28;20215;-79
2023/05/03 21:32:15;;;;;;;10.00;4.83;;;;;;;8.04;43.23;101342.81;20926409;28;20608;-78
2023/05/03 21:42:17;;;;;;;6.87;4.50;;;;;;;8.09;43.47;101333.47;20925348;28;20245;-79
2023/05/03 21:52:20;;;;;;;6.32;3.90;;;;;;;8.15;42.85;101327.47;20920898;28;20250;-79
2023/05/03 22:02:22;;;;;;;6.63;3.85;;;;;;;7.88;42.67;101316.00;20926876;28;20266;-79
2023/05/03 22:12:25;;;;;;;5.45;3.95;;;;;;;7.77;43.24;101311.66;20943891;28;20792;-78
2023/05/03 22:22:27;;;;;;;5.27;3.33;;;;;;;7.67;44.77;101308.97;21008021;28;20223;-79
2023/05/03 22:32:29;;;;;;;6.40;3.67;;;;;;;7.34;44.65;101307.94;21007124;28;20213;-78
2023/05/03 22:42:31;;;;;;;4.63;3.40;;;;;;;6.99;45.26;101300.66;20968818;28;20284;-78
2023/05/03 22:52:33;;;;;;;6.50;3.87;;;;;;;7.09;45.55;101303.41;21006132;28;20504;-79
2023/05/03 23:02:35;;;;;;;7.90;4.00;;;;;;;7.19;45.69;101300.50;21006114;28;20528;-79
2023/05/03 23:12:37;;;;;;;5.07;3.57;;;;;;;7.02;46.20;101302.88;20965642;28;20516;-79
2023/05/03 23:22:41;;;;;;;8.37;4.37;;;;;;;7.28;45.20;101290.28;20980301;28;20215;-80
2023/05/03 23:32:44;;;;;;;6.37;3.83;;;;;;;7.30;44.82;101276.78;20984564;28;20213;-79
2023/05/03 23:42:47;;;;;;;10.10;3.90;;;;;;;7.13;45.63;101275.53;21003568;28;20265;-78
2023/05/03 23:52:50;;;;;;;7.03;3.97;;;;;;;6.87;45.86;101260.91;21003218;28;20218;-78
